createdAt,value
2022-11-02T00:01:15.298Z,101471.40
2022-11-02T00:03:51.492Z,101470.80
2022-11-02T00:06:28.585Z,101470.00
2022-11-02T00:09:04.970Z,101467.00
2022-11-02T00:11:41.269Z,101463.60
2022-11-02T00:14:17.666Z,101462.80
2022-11-02T00:16:54.339Z,101459.20
2022-11-02T00:19:31.498Z,101455.80
2022-11-02T00:22:07.982Z,101451.40
2022-11-02T00:24:46.243Z,101449.20
2022-11-02T00:27:23.428Z,101446.80
2022-11-02T00:30:00.371Z,101448.60
2022-11-02T00:32:36.303Z,101446.40
2022-11-02T00:35:16.990Z,101448.40
2022-11-02T00:37:54.121Z,101453.80
2022-11-02T00:40:31.209Z,101455.40
2022-11-02T00:43:07.180Z,101458.80
2022-11-02T00:45:43.014Z,101459.40
2022-11-02T00:48:20.881Z,101459.40
2022-11-02T00:50:56.710Z,101465.20
2022-11-02T00:53:33.820Z,101486.00
2022-11-02T00:56:13.759Z,101481.60
2022-11-02T00:58:50.677Z,101476.00
2022-11-02T01:01:26.554Z,101484.00
2022-11-02T01:04:04.136Z,101491.00
2022-11-02T01:06:40.235Z,101480.60
2022-11-02T01:09:16.741Z,101489.20
2022-11-02T01:11:53.759Z,101488.00
2022-11-02T01:14:29.992Z,101483.80
2022-11-02T01:17:06.651Z,101486.60
2022-11-02T01:19:43.132Z,101483.20
2022-11-02T01:22:19.516Z,101483.00
2022-11-02T01:24:56.433Z,101480.40
2022-11-02T01:27:33.512Z,101478.00
2022-11-02T01:30:12.674Z,101481.00
2022-11-02T01:32:48.790Z,101479.00
2022-11-02T01:35:25.939Z,101477.40
2022-11-02T01:38:04.068Z,101478.60
2022-11-02T01:40:44.054Z,101475.40
2022-11-02T01:43:32.612Z,101479.80
2022-11-02T01:46:21.795Z,101476.40
2022-11-02T01:49:05.791Z,101474.80
2022-11-02T01:51:46.909Z,101476.00
2022-11-02T01:54:29.302Z,101473.00
2022-11-02T01:57:11.257Z,101470.60
2022-11-02T01:59:53.737Z,101465.80
2022-11-02T02:02:31.127Z,101464.60
2022-11-02T02:05:12.816Z,101462.60
2022-11-02T02:07:49.367Z,101455.40
2022-11-02T02:10:28.645Z,101456.00
2022-11-02T02:13:05.460Z,101455.80
2022-11-02T02:15:53.338Z,101452.40
2022-11-02T02:18:37.594Z,101452.00
2022-11-02T02:21:41.331Z,101444.80
2022-11-02T02:24:40.746Z,101441.00
2022-11-02T02:27:23.393Z,101440.60
2022-11-02T02:30:11.920Z,101440.00
2022-11-02T02:32:57.696Z,101439.00
2022-11-02T02:35:42.537Z,101434.60
2022-11-02T02:38:27.307Z,101433.40
2022-11-02T02:41:13.752Z,101431.40
2022-11-02T02:43:55.857Z,101430.20
2022-11-02T02:46:42.634Z,101425.00
2022-11-02T02:49:29.108Z,101428.60
2022-11-02T02:52:08.160Z,101423.00
2022-11-02T02:54:48.739Z,101420.60
2022-11-02T02:57:33.736Z,101420.60
2022-11-02T03:00:16.905Z,101417.20
2022-11-02T03:03:03.716Z,101413.20
2022-11-02T03:05:42.888Z,101417.00
2022-11-02T03:08:21.757Z,101411.80
2022-11-02T03:11:06.782Z,101417.20
2022-11-02T03:14:11.453Z,101413.80
2022-11-02T03:17:12.866Z,101414.60
2022-11-02T03:20:03.411Z,101423.20
2022-11-02T03:22:51.770Z,101427.00
2022-11-02T03:25:37.700Z,101427.40
2022-11-02T03:28:24.972Z,101422.40
2022-11-02T03:31:12.477Z,101429.40
2022-11-02T03:33:58.225Z,101433.20
2022-11-02T03:36:44.926Z,101439.00
2022-11-02T03:39:31.836Z,101434.40
2022-11-02T03:42:12.258Z,101439.40
2022-11-02T03:44:50.995Z,101442.60
2022-11-02T03:47:31.144Z,101442.00
2022-11-02T03:50:10.452Z,101440.00
2022-11-02T03:52:53.178Z,101437.00
2022-11-02T03:55:38.196Z,101432.00
2022-11-02T03:58:16.691Z,101432.60
2022-11-02T04:00:58.582Z,101438.40
2022-11-02T04:03:36.112Z,101444.20
2022-11-02T04:06:13.864Z,101447.20
2022-11-02T04:08:52.024Z,101444.40
2022-11-02T04:11:46.297Z,101444.40
2022-11-02T04:14:41.484Z,101449.80
2022-11-02T04:17:39.407Z,101449.20
2022-11-02T04:20:21.399Z,101453.20
2022-11-02T04:23:14.982Z,101457.40
2022-11-02T04:25:58.343Z,101459.00
2022-11-02T04:28:50.701Z,101459.80
2022-11-02T04:31:27.526Z,101461.40
2022-11-02T04:34:03.656Z,101465.40
2022-11-02T04:36:39.588Z,101470.40
2022-11-02T04:39:17.078Z,101470.60
2022-11-02T04:41:53.459Z,101476.00
2022-11-02T04:44:39.119Z,101478.80
2022-11-02T04:47:19.131Z,101480.60
2022-11-02T04:49:55.700Z,101485.60
2022-11-02T04:52:32.623Z,101490.60
2022-11-02T04:55:11.487Z,101495.40
2022-11-02T04:57:52.605Z,101492.80
2022-11-02T05:00:32.225Z,101493.20
2022-11-02T05:03:11.472Z,101495.80
2022-11-02T05:05:49.592Z,101494.00
2022-11-02T05:08:26.140Z,101499.40
2022-11-02T05:11:04.254Z,101505.80
2022-11-02T05:13:40.460Z,101497.80
2022-11-02T05:16:20.078Z,101507.40
2022-11-02T05:18:57.328Z,101505.20
2022-11-02T05:21:33.691Z,101504.20
2022-11-02T05:24:12.420Z,101504.60
2022-11-02T05:26:53.788Z,101504.40
2022-11-02T05:29:31.799Z,101500.00
2022-11-02T05:32:09.157Z,101496.40
2022-11-02T05:34:45.309Z,101500.00
2022-11-02T05:37:22.684Z,101503.80
2022-11-02T05:39:59.415Z,101499.40
2022-11-02T05:42:36.632Z,101502.00
2022-11-02T05:45:20.612Z,101499.20
2022-11-02T05:48:02.029Z,101503.00
2022-11-02T05:50:38.525Z,101509.00
2022-11-02T05:53:14.922Z,101518.80
2022-11-02T05:55:51.413Z,101520.60
2022-11-02T05:58:27.594Z,101521.80
2022-11-02T06:01:07.984Z,101527.40
2022-11-02T06:03:50.500Z,101526.60
2022-11-02T06:06:29.472Z,101529.80
2022-11-02T06:09:07.394Z,101529.60
2022-11-02T06:11:43.896Z,101533.80
2022-11-02T06:14:20.919Z,101537.80
2022-11-02T06:16:57.720Z,101540.40
2022-11-02T06:19:33.866Z,101535.00
2022-11-02T06:22:10.536Z,101539.00
2022-11-02T06:24:47.084Z,101533.40
2022-11-02T06:27:23.845Z,101532.60
2022-11-02T06:30:01.216Z,101529.00
2022-11-02T06:32:38.096Z,101525.60
2022-11-02T06:35:16.101Z,101523.40
2022-11-02T06:37:51.855Z,101524.60
2022-11-02T06:40:27.837Z,101521.20
2022-11-02T06:43:21.090Z,101528.80
2022-11-02T06:45:58.822Z,101544.40
2022-11-02T06:48:36.904Z,101539.60
2022-11-02T06:51:14.038Z,101538.80
2022-11-02T06:53:50.478Z,101537.40
2022-11-02T06:56:27.098Z,101538.80
2022-11-02T06:59:04.111Z,101547.20
2022-11-02T07:01:39.936Z,101552.60
2022-11-02T07:04:16.318Z,101562.40
2022-11-02T07:06:52.979Z,101565.00
2022-11-02T07:09:29.938Z,101569.60
2022-11-02T07:12:08.315Z,101573.40
2022-11-02T07:14:44.916Z,101577.60
2022-11-02T07:17:20.778Z,101586.40
2022-11-02T07:19:57.018Z,101596.40
2022-11-02T07:22:33.834Z,101595.80
2022-11-02T07:25:13.344Z,101595.80
2022-11-02T07:27:49.452Z,101594.60
2022-11-02T07:30:25.380Z,101589.20
2022-11-02T07:33:01.120Z,101580.20
2022-11-02T07:35:37.603Z,101581.60
2022-11-02T07:38:15.266Z,101582.80
2022-11-02T07:40:53.509Z,101579.60
2022-11-02T07:43:30.253Z,101586.40
2022-11-02T07:46:12.360Z,101592.60
2022-11-02T07:48:49.087Z,101591.60
2022-11-02T07:51:26.863Z,101590.20
2022-11-02T07:54:03.135Z,101586.80
2022-11-02T07:56:39.988Z,101594.60
2022-11-02T07:59:17.557Z,101593.60
2022-11-02T08:01:55.206Z,101588.20
2022-11-02T08:04:32.595Z,101603.20
2022-11-02T08:07:09.260Z,101598.20
2022-11-02T08:09:45.558Z,101596.20
2022-11-02T08:12:21.549Z,101601.60
2022-11-02T08:15:01.202Z,101611.40
2022-11-02T08:17:39.972Z,101607.00
2022-11-02T08:20:19.734Z,101601.20
2022-11-02T08:22:56.065Z,101593.20
2022-11-02T08:25:33.218Z,101588.40
2022-11-02T08:28:14.396Z,101584.20
2022-11-02T08:30:51.429Z,101589.00
2022-11-02T08:33:28.147Z,101585.80
2022-11-02T08:36:09.890Z,101577.80
2022-11-02T08:38:47.618Z,101571.60
2022-11-02T08:41:24.837Z,101564.40
2022-11-02T08:44:01.269Z,101560.60
2022-11-02T08:46:38.744Z,101557.20
2022-11-02T08:49:14.620Z,101551.60
2022-11-02T08:51:51.651Z,101548.80
2022-11-02T08:54:27.990Z,101546.60
2022-11-02T08:57:05.135Z,101552.60
2022-11-02T08:59:41.571Z,101543.80
2022-11-02T09:02:19.925Z,101540.80
2022-11-02T09:04:56.742Z,101538.20
2022-11-02T09:07:33.095Z,101530.40
2022-11-02T09:10:11.029Z,101529.80
2022-11-02T09:12:48.431Z,101529.20
2022-11-02T09:15:25.175Z,101534.00
2022-11-02T09:18:02.771Z,101532.80
2022-11-02T09:20:39.161Z,101525.60
2022-11-02T09:23:15.410Z,101519.40
2022-11-02T09:25:52.358Z,101518.40
2022-11-02T09:28:29.136Z,101520.00
2022-11-02T09:31:08.908Z,101515.00
2022-11-02T09:33:47.875Z,101515.40
2022-11-02T09:36:23.729Z,101523.40
2022-11-02T09:39:00.099Z,101529.60
2022-11-02T09:41:48.269Z,101533.60
2022-11-02T09:44:39.503Z,101535.40
2022-11-02T09:53:09.880Z,101550.60
2022-11-02T09:55:53.847Z,101552.80
2022-11-02T09:58:35.855Z,101560.60
2022-11-02T10:01:28.818Z,101554.80
2022-11-02T10:04:39.205Z,101553.80
2022-11-02T10:07:29.079Z,101563.00
2022-11-02T10:10:14.249Z,101559.80
2022-11-02T10:13:02.859Z,101558.80
2022-11-02T10:15:47.570Z,101566.20
2022-11-02T10:18:30.124Z,101567.80
2022-11-02T10:21:11.513Z,101570.60
2022-11-02T10:23:54.395Z,101572.80
2022-11-02T10:26:35.032Z,101575.40
2022-11-02T10:29:25.978Z,101573.80
2022-11-02T10:32:03.382Z,101570.60
2022-11-02T10:34:42.065Z,101569.80
2022-11-02T10:37:48.057Z,101569.60
2022-11-02T10:43:50.957Z,101562.60
2022-11-02T10:46:44.616Z,101560.20
2022-11-02T10:49:44.353Z,101554.20
2022-11-02T10:52:22.652Z,101551.40
2022-11-02T10:55:00.079Z,101545.40
2022-11-02T10:57:41.265Z,101542.80
2022-11-02T11:00:39.058Z,101535.20
2022-11-02T11:03:18.906Z,101536.40
2022-11-02T11:06:07.916Z,101535.40
2022-11-02T11:08:51.721Z,101527.20
2022-11-02T11:11:34.139Z,101526.80
2022-11-02T11:20:39.349Z,101515.80
2022-11-02T11:23:28.654Z,101511.80
2022-11-02T11:26:08.717Z,101511.40
2022-11-02T11:28:58.565Z,101507.60
2022-11-02T11:31:36.087Z,101510.20
2022-11-02T11:34:28.639Z,101508.00
2022-11-02T11:37:17.233Z,101503.60
2022-11-02T11:39:59.491Z,101499.20
2022-11-02T11:42:44.922Z,101495.40
2022-11-02T11:45:28.420Z,101489.60
2022-11-02T11:48:22.551Z,101484.60
2022-11-02T11:50:59.893Z,101479.80
2022-11-02T11:53:39.038Z,101475.60
2022-11-02T11:56:32.712Z,101467.80
2022-11-02T11:59:19.908Z,101464.40
2022-11-02T12:02:04.247Z,101460.40
2022-11-02T12:04:42.208Z,101457.20
2022-11-02T12:07:48.171Z,101453.80
2022-11-02T12:10:43.867Z,101455.20
2022-11-02T12:13:41.071Z,101453.20
2022-11-02T12:16:28.516Z,101455.20
2022-11-02T12:19:23.224Z,101458.60
2022-11-02T12:22:15.607Z,101449.40
2022-11-02T12:25:35.845Z,101444.80
2022-11-02T12:28:32.129Z,101439.20
2022-11-02T12:31:27.188Z,101440.00
2022-11-02T12:34:33.247Z,101443.00
2022-11-02T12:37:39.141Z,101442.00
2022-11-02T12:40:35.455Z,101438.20
2022-11-02T12:43:39.854Z,101435.00
2022-11-02T12:46:37.005Z,101435.00
2022-11-02T12:49:39.396Z,101431.00
2022-11-02T12:52:31.731Z,101431.40
2022-11-02T12:55:18.071Z,101432.60
2022-11-02T12:58:00.239Z,101429.20
2022-11-02T13:00:43.756Z,101423.00
2022-11-02T13:03:37.451Z,101416.20
2022-11-02T13:06:23.285Z,101403.60
2022-11-02T13:09:09.564Z,101402.00
2022-11-02T13:11:54.610Z,101390.60
2022-11-02T13:14:38.767Z,101385.00
2022-11-02T13:17:23.749Z,101380.40
2022-11-02T13:20:03.848Z,101377.40
2022-11-02T13:22:45.339Z,101384.00
2022-11-02T13:25:30.501Z,101385.40
2022-11-02T13:28:14.523Z,101388.40
2022-11-02T13:30:51.752Z,101397.60
2022-11-02T13:33:36.777Z,101404.20
2022-11-02T13:36:15.689Z,101408.60
2022-11-02T13:39:00.642Z,101411.60
2022-11-02T13:42:06.331Z,101413.60
2022-11-02T13:45:24.296Z,101416.40
2022-11-02T13:48:57.548Z,101422.60
2022-11-02T13:51:41.683Z,101425.60
2022-11-02T13:54:27.628Z,101428.60
2022-11-02T13:57:05.524Z,101425.20
2022-11-02T13:59:47.530Z,101422.20
2022-11-02T14:02:28.110Z,101417.60
2022-11-02T14:05:05.099Z,101421.80
2022-11-02T14:07:45.068Z,101418.00
2022-11-02T14:10:30.024Z,101423.60
2022-11-02T14:13:08.285Z,101431.40
2022-11-02T14:15:54.869Z,101433.00
2022-11-02T14:18:38.035Z,101435.00
2022-11-02T14:21:45.267Z,101429.40
2022-11-02T14:25:10.079Z,101428.80
2022-11-02T14:27:46.758Z,101428.80
2022-11-02T14:30:49.128Z,101428.40
2022-11-02T14:34:02.608Z,101420.00
2022-11-02T14:37:08.712Z,101408.80
2022-11-02T14:40:01.080Z,101411.60
2022-11-02T14:43:14.062Z,101406.80
2022-11-02T14:46:17.880Z,101407.00
2022-11-02T14:48:58.615Z,101403.20
2022-11-02T14:51:40.264Z,101401.80
2022-11-02T14:54:26.136Z,101400.00
2022-11-02T14:57:19.144Z,101398.00
2022-11-02T15:00:00.034Z,101394.80
2022-11-02T15:02:43.323Z,101395.40
2022-11-02T15:05:35.919Z,101393.60
2022-11-02T15:08:25.941Z,101390.80
2022-11-02T15:11:02.489Z,101390.40
2022-11-02T15:13:53.998Z,101399.00
2022-11-02T15:16:43.192Z,101400.20
2022-11-02T15:19:47.887Z,101393.40
2022-11-02T15:22:41.991Z,101391.20
2022-11-02T15:25:28.189Z,101395.00
2022-11-02T15:28:14.363Z,101392.60
2022-11-02T15:30:59.270Z,101388.80
2022-11-02T15:33:45.188Z,101385.60
2022-11-02T15:36:30.560Z,101378.80
2022-11-02T15:39:10.508Z,101379.00
2022-11-02T15:42:00.331Z,101377.40
2022-11-02T15:47:58.424Z,101368.60
2022-11-02T15:51:07.942Z,101365.80
2022-11-02T15:54:17.231Z,101367.20
2022-11-02T15:57:13.718Z,101368.00
2022-11-02T16:03:13.955Z,101371.40
2022-11-02T16:05:53.348Z,101372.80
2022-11-02T16:08:40.349Z,101370.40
2022-11-02T16:11:23.140Z,101362.60
2022-11-02T16:14:19.683Z,101362.80
2022-11-02T16:16:56.810Z,101366.80
2022-11-02T16:19:33.278Z,101370.60
2022-11-02T16:22:23.445Z,101374.40
2022-11-02T16:24:59.921Z,101370.80
2022-11-02T16:27:41.953Z,101371.60
2022-11-02T16:30:27.144Z,101367.60
2022-11-02T16:33:09.030Z,101369.00
2022-11-02T16:35:46.156Z,101371.00
2022-11-02T16:38:23.137Z,101373.20
2022-11-02T16:41:00.766Z,101385.40
2022-11-02T16:43:45.292Z,101391.40
2022-11-02T16:46:33.576Z,101398.40
2022-11-02T16:49:20.161Z,101401.00
2022-11-02T16:52:33.021Z,101398.40
2022-11-02T16:55:43.342Z,101400.00
2022-11-02T16:58:27.188Z,101403.00
2022-11-02T17:01:05.611Z,101405.20
2022-11-02T17:03:41.776Z,101405.60
2022-11-02T17:06:18.883Z,101413.80
2022-11-02T17:09:00.443Z,101418.60
2022-11-02T17:11:37.665Z,101422.20
2022-11-02T17:14:18.653Z,101424.40
2022-11-02T17:17:09.164Z,101426.00
2022-11-02T17:20:10.012Z,101430.40
2022-11-02T17:22:58.619Z,101434.60
2022-11-02T17:25:36.876Z,101438.00
2022-11-02T17:28:48.318Z,101439.40
2022-11-02T17:31:29.868Z,101442.20
2022-11-02T17:34:18.491Z,101441.00
2022-11-02T17:36:55.506Z,101434.00
2022-11-02T17:39:31.959Z,101440.20
2022-11-02T17:42:28.671Z,101440.40
2022-11-02T17:45:28.603Z,101437.40
2022-11-02T17:48:06.094Z,101437.80
2022-11-02T17:50:44.177Z,101442.00
2022-11-02T17:53:20.395Z,101446.20
2022-11-02T17:55:56.587Z,101452.60
2022-11-02T17:58:32.741Z,101454.80
2022-11-02T18:01:12.640Z,101451.20
2022-11-02T18:03:49.695Z,101450.00
2022-11-02T18:06:25.818Z,101455.40
2022-11-02T18:09:19.452Z,101462.00
2022-11-02T18:11:55.576Z,101466.00
2022-11-02T18:14:33.783Z,101465.40
2022-11-02T18:17:09.339Z,101462.80
2022-11-02T18:19:45.720Z,101466.80
2022-11-02T18:22:21.869Z,101467.00
2022-11-02T18:24:57.934Z,101465.00
2022-11-02T18:27:35.456Z,101463.00
2022-11-02T18:30:15.166Z,101463.80
2022-11-02T18:32:52.344Z,101464.00
2022-11-02T18:35:28.623Z,101466.20
2022-11-02T18:38:06.026Z,101467.60
2022-11-02T18:40:43.327Z,101463.00
2022-11-02T18:43:20.099Z,101460.20
2022-11-02T18:45:55.914Z,101470.00
2022-11-02T18:48:32.325Z,101467.00
2022-11-02T18:51:12.619Z,101465.20
2022-11-02T18:53:48.658Z,101461.60
2022-11-02T18:56:25.031Z,101457.00
2022-11-02T18:59:01.916Z,101457.00
2022-11-02T19:01:37.928Z,101452.00
2022-11-02T19:04:17.548Z,101455.20
2022-11-02T19:07:13.829Z,101459.80
2022-11-02T19:09:52.239Z,101461.00
2022-11-02T19:12:31.143Z,101458.40
2022-11-02T19:15:08.249Z,101457.80
2022-11-02T19:17:45.670Z,101458.20
2022-11-02T19:20:24.068Z,101464.20
2022-11-02T19:23:02.840Z,101461.60
2022-11-02T19:25:40.692Z,101461.80
2022-11-02T19:28:16.742Z,101460.40
2022-11-02T19:30:52.778Z,101466.00
2022-11-02T19:33:31.492Z,101464.40
2022-11-02T19:36:08.147Z,101464.40
2022-11-02T19:38:44.515Z,101463.60
2022-11-02T19:41:22.024Z,101462.00
2022-11-02T19:43:58.556Z,101458.60
2022-11-02T19:46:36.078Z,101458.80
2022-11-02T19:49:12.621Z,101460.60
2022-11-02T19:51:50.392Z,101461.20
2022-11-02T19:54:26.731Z,101461.60
2022-11-02T19:57:03.362Z,101463.00
2022-11-02T19:59:39.361Z,101456.60
2022-11-02T20:02:16.917Z,101461.40
2022-11-02T20:04:54.116Z,101462.00
2022-11-02T20:07:30.800Z,101466.00
2022-11-02T20:10:08.796Z,101468.60
2022-11-02T20:12:46.050Z,101466.40
2022-11-02T20:15:23.204Z,101475.80
2022-11-02T20:18:18.555Z,101470.80
2022-11-02T20:20:55.273Z,101470.40
2022-11-02T20:23:31.099Z,101472.20
2022-11-02T20:26:13.388Z,101470.40
2022-11-02T20:28:51.014Z,101468.00
2022-11-02T20:31:31.275Z,101470.40
2022-11-02T20:34:09.055Z,101472.60
2022-11-02T20:36:47.709Z,101471.80
2022-11-02T20:39:29.204Z,101468.40
2022-11-02T20:42:05.537Z,101471.60
2022-11-02T20:44:42.733Z,101469.60
2022-11-02T20:47:18.824Z,101470.60
2022-11-02T20:49:55.355Z,101473.40
2022-11-02T20:52:35.972Z,101473.20
2022-11-02T20:55:15.286Z,101469.00
2022-11-02T20:57:53.986Z,101469.00
2022-11-02T21:00:31.428Z,101464.20
2022-11-02T21:03:08.144Z,101464.40
2022-11-02T21:05:44.845Z,101464.40
2022-11-02T21:08:22.420Z,101468.80
2022-11-02T21:11:25.447Z,101473.60
2022-11-02T21:14:00.798Z,101478.80
2022-11-02T21:16:38.433Z,101481.00
2022-11-02T21:19:14.546Z,101480.60
2022-11-02T21:21:55.088Z,101482.80
2022-11-02T21:24:35.002Z,101478.00
2022-11-02T21:27:11.447Z,101477.80
2022-11-02T21:29:48.526Z,101470.00
2022-11-02T21:32:24.963Z,101464.60
2022-11-02T21:35:01.630Z,101463.00
2022-11-02T21:37:38.404Z,101460.20
2022-11-02T21:40:20.667Z,101460.00
2022-11-02T21:42:58.278Z,101457.40
2022-11-02T21:45:37.856Z,101454.00
2022-11-02T21:48:14.984Z,101451.20
2022-11-02T21:51:00.398Z,101448.40
2022-11-02T21:53:38.825Z,101449.60
2022-11-02T21:56:18.513Z,101448.60
2022-11-02T21:58:56.732Z,101445.60
2022-11-02T22:04:33.108Z,101447.60
2022-11-02T22:07:10.252Z,101456.00
2022-11-02T22:09:47.198Z,101459.80
2022-11-02T22:12:40.503Z,101463.60
2022-11-02T22:15:19.485Z,101471.00
2022-11-02T22:17:55.353Z,101469.00
2022-11-02T22:20:31.942Z,101467.00
2022-11-02T22:23:12.186Z,101470.40
2022-11-02T22:25:48.606Z,101474.20
2022-11-02T22:28:25.681Z,101477.80
2022-11-02T22:31:01.906Z,101475.80
2022-11-02T22:33:39.114Z,101475.80
2022-11-02T22:36:19.769Z,101470.20
2022-11-02T22:38:57.741Z,101468.20
2022-11-02T22:41:36.972Z,101470.20
2022-11-02T22:44:16.534Z,101465.60
2022-11-02T22:46:57.234Z,101462.00
2022-11-02T22:49:33.600Z,101458.80
2022-11-02T22:52:10.866Z,101455.40
2022-11-02T22:54:47.785Z,101456.20
2022-11-02T22:57:24.931Z,101453.40
2022-11-02T23:00:03.837Z,101449.20
2022-11-02T23:02:42.051Z,101447.40
2022-11-02T23:05:21.195Z,101448.20
2022-11-02T23:07:57.287Z,101443.80
2022-11-02T23:10:54.650Z,101441.40
2022-11-02T23:13:32.268Z,101436.00
2022-11-02T23:16:26.155Z,101431.40
2022-11-02T23:19:27.893Z,101427.60
2022-11-02T23:22:25.295Z,101425.40
2022-11-02T23:25:15.126Z,101426.60
2022-11-02T23:28:15.168Z,101425.80
2022-11-02T23:31:09.187Z,101433.40
2022-11-02T23:33:48.971Z,101435.20
2022-11-02T23:36:26.026Z,101437.80
2022-11-02T23:39:19.393Z,101437.40
2022-11-02T23:41:55.473Z,101440.20
2022-11-02T23:44:32.101Z,101439.80
2022-11-02T23:47:08.656Z,101435.40
2022-11-02T23:49:44.875Z,101430.80
2022-11-02T23:52:48.858Z,101429.20
2022-11-02T23:55:42.113Z,101426.60
2022-11-02T23:58:19.491Z,101430.00
